sensor_id;sensor_type;location;lat;lon;timestamp;temperature;humidity
24802;DHT22;12898;50.520;12.152;2022-09-14T00:01:13;15.70;99.90
24802;DHT22;12898;50.520;12.152;2022-09-14T00:03:41;15.70;99.90
24802;DHT22;12898;50.520;12.152;2022-09-14T00:06:09;15.80;99.90
24802;DHT22;12898;50.520;12.152;2022-09-14T00:08:38;15.80;99.90
24802;DHT22;12898;50.520;12.152;2022-09-14T00:11:09;15.80;99.90
24802;DHT22;12898;50.520;12.152;2022-09-14T00:13:37;15.70;99.90
24802;DHT22;12898;50.520;12.152;2022-09-14T00:16:10;15.70;99.90
24802;DHT22;12898;50.520;12.152;2022-09-14T00:18:38;15.70;99.90
24802;DHT22;12898;50.520;12.152;2022-09-14T00:21:07;15.60;99.90
24802;DHT22;12898;50.520;12.152;2022-09-14T00:23:36;15.50;99.90
24802;DHT22;12898;50.520;12.152;2022-09-14T00:26:14;15.50;99.90
24802;DHT22;12898;50.520;12.152;2022-09-14T00:28:44;15.40;99.90
24802;DHT22;12898;50.520;12.152;2022-09-14T00:31:12;15.30;99.90
24802;DHT22;12898;50.520;12.152;2022-09-14T00:33:41;15.30;99.90
24802;DHT22;12898;50.520;12.152;2022-09-14T00:36:10;15.30;99.90
24802;DHT22;12898;50.520;12.152;2022-09-14T00:38:37;15.30;99.90
24802;DHT22;12898;50.520;12.152;2022-09-14T00:41:05;15.20;99.90
24802;DHT22;12898;50.520;12.152;2022-09-14T00:43:49;15.20;99.90
24802;DHT22;12898;50.520;12.152;2022-09-14T00:46:18;15.20;99.90
24802;DHT22;12898;50.520;12.152;2022-09-14T00:48:43;15.20;99.90
24802;DHT22;12898;50.520;12.152;2022-09-14T00:51:09;15.20;99.90
24802;DHT22;12898;50.520;12.152;2022-09-14T00:53:35;15.20;99.90
24802;DHT22;12898;50.520;12.152;2022-09-14T00:56:01;15.30;99.90
24802;DHT22;12898;50.520;12.152;2022-09-14T00:58:27;15.30;99.90
24802;DHT22;12898;50.520;12.152;2022-09-14T01:00:53;15.30;99.90
24802;DHT22;12898;50.520;12.152;2022-09-14T01:03:19;15.30;99.90
24802;DHT22;12898;50.520;12.152;2022-09-14T01:06:01;15.30;99.90
24802;DHT22;12898;50.520;12.152;2022-09-14T01:09:55;15.30;99.90
24802;DHT22;12898;50.520;12.152;2022-09-14T01:14:53;15.30;99.90
24802;DHT22;12898;50.520;12.152;2022-09-14T01:17:35;15.30;99.90
24802;DHT22;12898;50.520;12.152;2022-09-14T01:23:17;15.30;99.90
24802;DHT22;12898;50.520;12.152;2022-09-14T01:40:34;15.20;99.90
24802;DHT22;12898;50.520;12.152;2022-09-14T01:43:17;15.20;99.90
24802;DHT22;12898;50.520;12.152;2022-09-14T01:45:50;15.20;99.90
24802;DHT22;12898;50.520;12.152;2022-09-14T01:48:24;15.20;99.90
24802;DHT22;12898;50.520;12.152;2022-09-14T01:50:56;15.20;99.90
24802;DHT22;12898;50.520;12.152;2022-09-14T01:56:12;15.20;99.90
24802;DHT22;12898;50.520;12.152;2022-09-14T01:58:46;15.20;99.90
24802;DHT22;12898;50.520;12.152;2022-09-14T02:01:20;15.20;99.90
24802;DHT22;12898;50.520;12.152;2022-09-14T02:03:54;15.20;99.90
24802;DHT22;12898;50.520;12.152;2022-09-14T02:08:58;15.10;99.90
24802;DHT22;12898;50.520;12.152;2022-09-14T02:11:24;15.20;99.90
24802;DHT22;12898;50.520;12.152;2022-09-14T02:13:50;15.20;99.90
24802;DHT22;12898;50.520;12.152;2022-09-14T02:16:16;15.20;99.90
24802;DHT22;12898;50.520;12.152;2022-09-14T02:18:43;15.20;99.90
24802;DHT22;12898;50.520;12.152;2022-09-14T02:21:18;15.20;99.90
24802;DHT22;12898;50.520;12.152;2022-09-14T02:23:49;15.20;99.90
24802;DHT22;12898;50.520;12.152;2022-09-14T02:26:16;15.20;99.90
24802;DHT22;12898;50.520;12.152;2022-09-14T02:28:43;15.20;99.90
24802;DHT22;12898;50.520;12.152;2022-09-14T02:37:30;15.20;99.90
24802;DHT22;12898;50.520;12.152;2022-09-14T02:40:31;15.20;99.90
24802;DHT22;12898;50.520;12.152;2022-09-14T02:43:38;15.20;99.90
24802;DHT22;12898;50.520;12.152;2022-09-14T02:49:14;15.20;99.90
24802;DHT22;12898;50.520;12.152;2022-09-14T02:52:09;15.20;99.90
24802;DHT22;12898;50.520;12.152;2022-09-14T02:54:51;15.20;99.90
24802;DHT22;12898;50.520;12.152;2022-09-14T02:57:19;15.10;99.90
24802;DHT22;12898;50.520;12.152;2022-09-14T02:59:45;15.10;99.90
24802;DHT22;12898;50.520;12.152;2022-09-14T03:02:11;15.20;99.90
24802;DHT22;12898;50.520;12.152;2022-09-14T03:04:36;15.10;99.90
24802;DHT22;12898;50.520;12.152;2022-09-14T03:07:02;15.10;99.90
24802;DHT22;12898;50.520;12.152;2022-09-14T03:09:28;15.00;99.90
24802;DHT22;12898;50.520;12.152;2022-09-14T03:11:53;15.10;99.90
24802;DHT22;12898;50.520;12.152;2022-09-14T03:14:19;15.10;99.90
24802;DHT22;12898;50.520;12.152;2022-09-14T03:16:45;15.10;99.90
24802;DHT22;12898;50.520;12.152;2022-09-14T03:19:10;15.10;99.90
24802;DHT22;12898;50.520;12.152;2022-09-14T03:21:37;15.10;99.90
24802;DHT22;12898;50.520;12.152;2022-09-14T03:24:04;15.10;99.90
24802;DHT22;12898;50.520;12.152;2022-09-14T03:26:30;15.10;99.90
24802;DHT22;12898;50.520;12.152;2022-09-14T03:28:57;15.10;99.90
24802;DHT22;12898;50.520;12.152;2022-09-14T03:31:24;15.10;99.90
24802;DHT22;12898;50.520;12.152;2022-09-14T03:33:54;15.10;99.90
24802;DHT22;12898;50.520;12.152;2022-09-14T03:36:23;15.10;99.90
24802;DHT22;12898;50.520;12.152;2022-09-14T03:38:51;15.10;99.90
24802;DHT22;12898;50.520;12.152;2022-09-14T03:41:19;15.10;99.90
24802;DHT22;12898;50.520;12.152;2022-09-14T03:43:45;15.20;99.90
24802;DHT22;12898;50.520;12.152;2022-09-14T03:46:14;15.10;99.90
24802;DHT22;12898;50.520;12.152;2022-09-14T03:48:42;15.10;99.90
24802;DHT22;12898;50.520;12.152;2022-09-14T03:51:09;15.10;99.90
24802;DHT22;12898;50.520;12.152;2022-09-14T03:53:37;15.10;99.90
24802;DHT22;12898;50.520;12.152;2022-09-14T03:56:12;15.10;99.90
24802;DHT22;12898;50.520;12.152;2022-09-14T03:58:40;15.10;99.90
24802;DHT22;12898;50.520;12.152;2022-09-14T04:01:08;15.10;99.90
24802;DHT22;12898;50.520;12.152;2022-09-14T04:03:36;15.10;99.90
24802;DHT22;12898;50.520;12.152;2022-09-14T04:06:03;15.10;99.90
24802;DHT22;12898;50.520;12.152;2022-09-14T04:08:33;15.10;99.90
24802;DHT22;12898;50.520;12.152;2022-09-14T04:11:10;15.20;99.90
24802;DHT22;12898;50.520;12.152;2022-09-14T04:13:39;15.10;99.90
24802;DHT22;12898;50.520;12.152;2022-09-14T04:16:06;15.10;99.90
24802;DHT22;12898;50.520;12.152;2022-09-14T04:18:32;15.10;99.90
24802;DHT22;12898;50.520;12.152;2022-09-14T04:21:00;15.10;99.90
24802;DHT22;12898;50.520;12.152;2022-09-14T04:23:28;15.10;99.90
24802;DHT22;12898;50.520;12.152;2022-09-14T04:25:54;15.20;99.90
24802;DHT22;12898;50.520;12.152;2022-09-14T04:28:20;15.10;99.90
24802;DHT22;12898;50.520;12.152;2022-09-14T04:30:57;15.10;99.90
24802;DHT22;12898;50.520;12.152;2022-09-14T04:33:25;15.10;99.90
24802;DHT22;12898;50.520;12.152;2022-09-14T04:36:02;15.20;99.90
24802;DHT22;12898;50.520;12.152;2022-09-14T04:38:30;15.20;99.90
24802;DHT22;12898;50.520;12.152;2022-09-14T04:40:57;15.20;99.90
24802;DHT22;12898;50.520;12.152;2022-09-14T04:43:24;15.20;99.90
24802;DHT22;12898;50.520;12.152;2022-09-14T04:45:51;15.20;99.90
24802;DHT22;12898;50.520;12.152;2022-09-14T04:48:18;15.20;99.90
24802;DHT22;12898;50.520;12.152;2022-09-14T04:50:44;15.20;99.90
24802;DHT22;12898;50.520;12.152;2022-09-14T04:53:10;15.20;99.90
24802;DHT22;12898;50.520;12.152;2022-09-14T04:55:36;15.20;99.90
24802;DHT22;12898;50.520;12.152;2022-09-14T04:58:03;15.20;99.90
24802;DHT22;12898;50.520;12.152;2022-09-14T05:00:29;15.20;99.90
24802;DHT22;12898;50.520;12.152;2022-09-14T05:02:54;15.20;99.90
24802;DHT22;12898;50.520;12.152;2022-09-14T05:05:20;15.10;99.90
24802;DHT22;12898;50.520;12.152;2022-09-14T05:07:46;15.20;99.90
24802;DHT22;12898;50.520;12.152;2022-09-14T05:10:11;15.20;99.90
24802;DHT22;12898;50.520;12.152;2022-09-14T05:12:37;15.20;99.90
24802;DHT22;12898;50.520;12.152;2022-09-14T05:15:03;15.20;99.90
24802;DHT22;12898;50.520;12.152;2022-09-14T05:17:33;15.20;99.90
24802;DHT22;12898;50.520;12.152;2022-09-14T05:19:59;15.20;99.90
24802;DHT22;12898;50.520;12.152;2022-09-14T05:22:25;15.20;99.90
24802;DHT22;12898;50.520;12.152;2022-09-14T05:24:51;15.20;99.90
24802;DHT22;12898;50.520;12.152;2022-09-14T05:27:16;15.20;99.90
24802;DHT22;12898;50.520;12.152;2022-09-14T05:29:42;15.20;99.90
24802;DHT22;12898;50.520;12.152;2022-09-14T05:32:08;15.20;99.90
24802;DHT22;12898;50.520;12.152;2022-09-14T05:34:33;15.20;99.90
24802;DHT22;12898;50.520;12.152;2022-09-14T05:36:59;15.20;99.90
24802;DHT22;12898;50.520;12.152;2022-09-14T05:39:25;15.20;99.90
24802;DHT22;12898;50.520;12.152;2022-09-14T05:41:51;15.20;99.90
24802;DHT22;12898;50.520;12.152;2022-09-14T05:44:17;15.20;99.90
24802;DHT22;12898;50.520;12.152;2022-09-14T05:46:42;15.20;99.90
24802;DHT22;12898;50.520;12.152;2022-09-14T05:49:08;15.20;99.90
24802;DHT22;12898;50.520;12.152;2022-09-14T05:51:34;15.20;99.90
24802;DHT22;12898;50.520;12.152;2022-09-14T05:53:59;15.20;99.90
24802;DHT22;12898;50.520;12.152;2022-09-14T05:56:27;15.20;99.90
24802;DHT22;12898;50.520;12.152;2022-09-14T05:58:54;15.30;99.90
24802;DHT22;12898;50.520;12.152;2022-09-14T06:01:25;15.20;99.90
24802;DHT22;12898;50.520;12.152;2022-09-14T06:03:53;15.30;99.90
24802;DHT22;12898;50.520;12.152;2022-09-14T06:06:23;15.30;99.90
24802;DHT22;12898;50.520;12.152;2022-09-14T06:08:50;15.30;99.90
24802;DHT22;12898;50.520;12.152;2022-09-14T06:11:25;15.30;99.90
24802;DHT22;12898;50.520;12.152;2022-09-14T06:13:54;15.30;99.90
24802;DHT22;12898;50.520;12.152;2022-09-14T06:16:21;15.40;99.90
24802;DHT22;12898;50.520;12.152;2022-09-14T06:18:48;15.40;99.90
24802;DHT22;12898;50.520;12.152;2022-09-14T06:21:16;15.40;99.90
24802;DHT22;12898;50.520;12.152;2022-09-14T06:23:44;15.40;99.90
24802;DHT22;12898;50.520;12.152;2022-09-14T06:26:10;15.40;99.90
24802;DHT22;12898;50.520;12.152;2022-09-14T06:28:37;15.40;99.90
24802;DHT22;12898;50.520;12.152;2022-09-14T06:31:03;15.40;99.90
24802;DHT22;12898;50.520;12.152;2022-09-14T06:33:32;15.40;99.90
24802;DHT22;12898;50.520;12.152;2022-09-14T06:36:01;15.40;99.90
24802;DHT22;12898;50.520;12.152;2022-09-14T06:38:27;15.40;99.90
24802;DHT22;12898;50.520;12.152;2022-09-14T06:40:59;15.40;99.90
24802;DHT22;12898;50.520;12.152;2022-09-14T06:43:33;15.40;99.90
24802;DHT22;12898;50.520;12.152;2022-09-14T06:46:05;15.40;99.90
24802;DHT22;12898;50.520;12.152;2022-09-14T06:48:37;15.40;99.90
24802;DHT22;12898;50.520;12.152;2022-09-14T06:51:28;15.50;99.90
24802;DHT22;12898;50.520;12.152;2022-09-14T06:53:59;15.40;99.90
24802;DHT22;12898;50.520;12.152;2022-09-14T06:56:27;15.50;99.90
24802;DHT22;12898;50.520;12.152;2022-09-14T06:58:54;15.50;99.90
24802;DHT22;12898;50.520;12.152;2022-09-14T07:01:20;15.50;99.90
24802;DHT22;12898;50.520;12.152;2022-09-14T07:03:47;15.50;99.90
24802;DHT22;12898;50.520;12.152;2022-09-14T07:06:18;15.50;99.90
24802;DHT22;12898;50.520;12.152;2022-09-14T07:08:46;15.50;99.90
24802;DHT22;12898;50.520;12.152;2022-09-14T07:11:13;15.60;99.90
24802;DHT22;12898;50.520;12.152;2022-09-14T07:13:41;15.60;99.90
24802;DHT22;12898;50.520;12.152;2022-09-14T07:16:07;15.60;99.90
24802;DHT22;12898;50.520;12.152;2022-09-14T07:18:34;15.70;99.90
24802;DHT22;12898;50.520;12.152;2022-09-14T07:21:08;15.70;99.90
24802;DHT22;12898;50.520;12.152;2022-09-14T07:23:40;15.70;99.90
24802;DHT22;12898;50.520;12.152;2022-09-14T07:26:09;15.70;99.90
24802;DHT22;12898;50.520;12.152;2022-09-14T07:28:37;15.80;99.90
24802;DHT22;12898;50.520;12.152;2022-09-14T07:31:05;15.80;99.90
24802;DHT22;12898;50.520;12.152;2022-09-14T07:33:39;15.80;99.90
24802;DHT22;12898;50.520;12.152;2022-09-14T07:36:06;15.80;99.90
24802;DHT22;12898;50.520;12.152;2022-09-14T07:38:33;15.80;99.90
24802;DHT22;12898;50.520;12.152;2022-09-14T07:40:59;15.90;99.90
24802;DHT22;12898;50.520;12.152;2022-09-14T07:43:25;15.80;99.90
24802;DHT22;12898;50.520;12.152;2022-09-14T07:45:51;15.90;99.90
24802;DHT22;12898;50.520;12.152;2022-09-14T07:48:16;15.90;99.90
24802;DHT22;12898;50.520;12.152;2022-09-14T07:50:42;15.90;99.90
24802;DHT22;12898;50.520;12.152;2022-09-14T07:53:08;16.00;99.90
24802;DHT22;12898;50.520;12.152;2022-09-14T07:55:37;16.00;99.90
24802;DHT22;12898;50.520;12.152;2022-09-14T07:58:03;16.00;99.90
24802;DHT22;12898;50.520;12.152;2022-09-14T08:00:29;16.10;99.90
24802;DHT22;12898;50.520;12.152;2022-09-14T08:02:55;16.10;99.90
24802;DHT22;12898;50.520;12.152;2022-09-14T08:05:22;16.20;99.90
24802;DHT22;12898;50.520;12.152;2022-09-14T08:07:53;16.20;99.90
24802;DHT22;12898;50.520;12.152;2022-09-14T08:10:19;16.20;99.90
24802;DHT22;12898;50.520;12.152;2022-09-14T08:12:49;16.30;99.90
24802;DHT22;12898;50.520;12.152;2022-09-14T08:15:22;16.30;99.90
24802;DHT22;12898;50.520;12.152;2022-09-14T08:17:48;16.30;99.90
24802;DHT22;12898;50.520;12.152;2022-09-14T08:20:15;16.30;99.90
24802;DHT22;12898;50.520;12.152;2022-09-14T08:22:42;16.40;99.90
24802;DHT22;12898;50.520;12.152;2022-09-14T08:25:09;16.40;99.90
24802;DHT22;12898;50.520;12.152;2022-09-14T08:27:35;16.40;99.90
24802;DHT22;12898;50.520;12.152;2022-09-14T08:30:01;16.50;99.90
24802;DHT22;12898;50.520;12.152;2022-09-14T08:32:27;16.50;99.90
24802;DHT22;12898;50.520;12.152;2022-09-14T08:34:53;16.50;99.90
24802;DHT22;12898;50.520;12.152;2022-09-14T08:37:19;16.50;99.90
24802;DHT22;12898;50.520;12.152;2022-09-14T08:39:44;16.50;99.90
24802;DHT22;12898;50.520;12.152;2022-09-14T08:42:17;16.50;99.90
24802;DHT22;12898;50.520;12.152;2022-09-14T08:44:49;16.60;99.90
24802;DHT22;12898;50.520;12.152;2022-09-14T08:47:34;16.70;99.90
24802;DHT22;12898;50.520;12.152;2022-09-14T08:53:12;16.90;99.90
24802;DHT22;12898;50.520;12.152;2022-09-14T08:55:57;16.90;99.90
24802;DHT22;12898;50.520;12.152;2022-09-14T09:02:22;17.10;99.90
24802;DHT22;12898;50.520;12.152;2022-09-14T09:04:37;17.20;99.90
24802;DHT22;12898;50.520;12.152;2022-09-14T09:07:16;17.20;99.90
24802;DHT22;12898;50.520;12.152;2022-09-14T09:09:51;17.30;99.90
24802;DHT22;12898;50.520;12.152;2022-09-14T09:12:24;17.30;99.90
24802;DHT22;12898;50.520;12.152;2022-09-14T09:16:09;17.40;99.90
24802;DHT22;12898;50.520;12.152;2022-09-14T09:18:14;17.50;99.90
24802;DHT22;12898;50.520;12.152;2022-09-14T09:20:49;17.60;99.90
24802;DHT22;12898;50.520;12.152;2022-09-14T09:23:20;17.60;99.90
24802;DHT22;12898;50.520;12.152;2022-09-14T09:26:01;17.60;99.90
24802;DHT22;12898;50.520;12.152;2022-09-14T09:28:30;17.60;99.90
24802;DHT22;12898;50.520;12.152;2022-09-14T09:31:01;17.60;99.90
24802;DHT22;12898;50.520;12.152;2022-09-14T09:33:29;17.60;99.90
24802;DHT22;12898;50.520;12.152;2022-09-14T09:35:55;17.70;99.90
24802;DHT22;12898;50.520;12.152;2022-09-14T09:38:24;17.90;99.90
24802;DHT22;12898;50.520;12.152;2022-09-14T09:41:12;18.00;99.90
24802;DHT22;12898;50.520;12.152;2022-09-14T09:43:58;18.20;99.90
24802;DHT22;12898;50.520;12.152;2022-09-14T09:46:32;18.40;99.90
24802;DHT22;12898;50.520;12.152;2022-09-14T09:49:01;18.50;99.90
24802;DHT22;12898;50.520;12.152;2022-09-14T09:51:30;18.60;99.90
24802;DHT22;12898;50.520;12.152;2022-09-14T09:54:28;18.70;99.90
24802;DHT22;12898;50.520;12.152;2022-09-14T09:57:31;18.60;99.90
24802;DHT22;12898;50.520;12.152;2022-09-14T10:00:24;18.40;99.90
24802;DHT22;12898;50.520;12.152;2022-09-14T10:02:53;18.20;99.90
24802;DHT22;12898;50.520;12.152;2022-09-14T10:07:59;17.90;99.90
24802;DHT22;12898;50.520;12.152;2022-09-14T10:13:04;18.00;99.90
24802;DHT22;12898;50.520;12.152;2022-09-14T10:15:35;17.90;99.90
24802;DHT22;12898;50.520;12.152;2022-09-14T10:25:51;18.00;99.90
24802;DHT22;12898;50.520;12.152;2022-09-14T10:28:36;18.00;99.90
24802;DHT22;12898;50.520;12.152;2022-09-14T10:33:54;18.00;99.90
24802;DHT22;12898;50.520;12.152;2022-09-14T10:36:32;17.90;99.90
24802;DHT22;12898;50.520;12.152;2022-09-14T10:39:22;17.90;99.90
24802;DHT22;12898;50.520;12.152;2022-09-14T10:42:28;17.90;99.90
24802;DHT22;12898;50.520;12.152;2022-09-14T10:48:38;18.00;99.90
24802;DHT22;12898;50.520;12.152;2022-09-14T10:57:04;17.80;99.90
24802;DHT22;12898;50.520;12.152;2022-09-14T11:08:13;18.00;99.90
24802;DHT22;12898;50.520;12.152;2022-09-14T11:17:19;18.00;99.90
24802;DHT22;12898;50.520;12.152;2022-09-14T11:23:09;18.20;99.90
24802;DHT22;12898;50.520;12.152;2022-09-14T11:26:15;18.30;99.90
24802;DHT22;12898;50.520;12.152;2022-09-14T11:28:52;18.40;99.90
24802;DHT22;12898;50.520;12.152;2022-09-14T11:31:45;18.50;99.90
24802;DHT22;12898;50.520;12.152;2022-09-14T11:34:28;18.60;99.90
24802;DHT22;12898;50.520;12.152;2022-09-14T11:37:07;18.70;99.90
24802;DHT22;12898;50.520;12.152;2022-09-14T11:39:47;18.70;99.90
24802;DHT22;12898;50.520;12.152;2022-09-14T11:42:21;18.70;99.90
24802;DHT22;12898;50.520;12.152;2022-09-14T11:45:14;18.90;99.90
24802;DHT22;12898;50.520;12.152;2022-09-14T11:47:44;19.00;99.90
24802;DHT22;12898;50.520;12.152;2022-09-14T11:50:20;19.40;99.90
24802;DHT22;12898;50.520;12.152;2022-09-14T11:52:54;19.40;99.90
24802;DHT22;12898;50.520;12.152;2022-09-14T11:55:26;19.50;99.90
24802;DHT22;12898;50.520;12.152;2022-09-14T11:57:52;19.50;99.90
24802;DHT22;12898;50.520;12.152;2022-09-14T12:03:13;19.40;99.90
24802;DHT22;12898;50.520;12.152;2022-09-14T12:05:42;19.50;99.90
24802;DHT22;12898;50.520;12.152;2022-09-14T12:08:36;19.60;99.90
24802;DHT22;12898;50.520;12.152;2022-09-14T12:13:35;19.60;99.90
24802;DHT22;12898;50.520;12.152;2022-09-14T12:16:03;19.70;99.90
24802;DHT22;12898;50.520;12.152;2022-09-14T12:18:31;19.70;99.90
24802;DHT22;12898;50.520;12.152;2022-09-14T12:21:04;19.60;99.90
24802;DHT22;12898;50.520;12.152;2022-09-14T12:36:08;20.00;99.90
24802;DHT22;12898;50.520;12.152;2022-09-14T13:05:43;20.30;99.90
24802;DHT22;12898;50.520;12.152;2022-09-14T13:08:10;20.50;99.90
24802;DHT22;12898;50.520;12.152;2022-09-14T13:10:43;20.70;99.90
24802;DHT22;12898;50.520;12.152;2022-09-14T13:13:17;21.00;99.90
24802;DHT22;12898;50.520;12.152;2022-09-14T13:15:54;21.40;99.90
24802;DHT22;12898;50.520;12.152;2022-09-14T13:20:52;21.40;99.90
24802;DHT22;12898;50.520;12.152;2022-09-14T13:23:29;21.20;99.90
24802;DHT22;12898;50.520;12.152;2022-09-14T13:26:24;20.90;99.90
24802;DHT22;12898;50.520;12.152;2022-09-14T13:28:53;20.50;99.90
24802;DHT22;12898;50.520;12.152;2022-09-14T13:31:37;20.30;99.90
24802;DHT22;12898;50.520;12.152;2022-09-14T13:34:03;20.10;99.90
24802;DHT22;12898;50.520;12.152;2022-09-14T13:36:41;19.80;99.90
24802;DHT22;12898;50.520;12.152;2022-09-14T13:39:28;19.60;99.90
24802;DHT22;12898;50.520;12.152;2022-09-14T13:41:56;19.40;99.90
24802;DHT22;12898;50.520;12.152;2022-09-14T13:44:29;19.20;99.90
24802;DHT22;12898;50.520;12.152;2022-09-14T13:46:58;19.10;99.90
24802;DHT22;12898;50.520;12.152;2022-09-14T13:49:26;19.00;99.90
24802;DHT22;12898;50.520;12.152;2022-09-14T13:51:51;18.90;99.90
24802;DHT22;12898;50.520;12.152;2022-09-14T13:54:24;18.90;99.90
24802;DHT22;12898;50.520;12.152;2022-09-14T13:57:12;18.90;99.90
24802;DHT22;12898;50.520;12.152;2022-09-14T14:02:52;18.80;99.90
24802;DHT22;12898;50.520;12.152;2022-09-14T14:05:27;18.70;99.90
24802;DHT22;12898;50.520;12.152;2022-09-14T14:07:55;18.60;99.90
24802;DHT22;12898;50.520;12.152;2022-09-14T14:12:53;18.60;99.90
24802;DHT22;12898;50.520;12.152;2022-09-14T14:17:44;18.40;99.90
24802;DHT22;12898;50.520;12.152;2022-09-14T14:23:18;18.50;99.90
24802;DHT22;12898;50.520;12.152;2022-09-14T14:25:53;18.50;99.90
24802;DHT22;12898;50.520;12.152;2022-09-14T14:28:30;18.50;99.90
24802;DHT22;12898;50.520;12.152;2022-09-14T14:30:58;18.40;99.90
24802;DHT22;12898;50.520;12.152;2022-09-14T14:33:26;18.40;99.90
24802;DHT22;12898;50.520;12.152;2022-09-14T14:35:53;18.40;99.90
24802;DHT22;12898;50.520;12.152;2022-09-14T14:38:21;18.40;99.90
24802;DHT22;12898;50.520;12.152;2022-09-14T14:40:49;18.40;99.90
24802;DHT22;12898;50.520;12.152;2022-09-14T14:43:20;18.40;99.90
24802;DHT22;12898;50.520;12.152;2022-09-14T14:45:52;18.40;99.90
24802;DHT22;12898;50.520;12.152;2022-09-14T14:48:22;18.50;99.90
24802;DHT22;12898;50.520;12.152;2022-09-14T14:50:48;18.40;99.90
24802;DHT22;12898;50.520;12.152;2022-09-14T14:53:14;18.30;99.90
24802;DHT22;12898;50.520;12.152;2022-09-14T14:55:40;18.30;99.90
24802;DHT22;12898;50.520;12.152;2022-09-14T14:58:09;18.30;99.90
24802;DHT22;12898;50.520;12.152;2022-09-14T15:00:38;18.40;99.90
24802;DHT22;12898;50.520;12.152;2022-09-14T15:03:04;18.40;99.90
24802;DHT22;12898;50.520;12.152;2022-09-14T15:05:30;18.50;99.90
24802;DHT22;12898;50.520;12.152;2022-09-14T15:07:56;18.60;99.90
24802;DHT22;12898;50.520;12.152;2022-09-14T15:10:24;18.50;99.90
24802;DHT22;12898;50.520;12.152;2022-09-14T15:12:50;18.60;99.90
24802;DHT22;12898;50.520;12.152;2022-09-14T15:15:22;18.50;99.90
24802;DHT22;12898;50.520;12.152;2022-09-14T15:17:49;18.50;99.90
24802;DHT22;12898;50.520;12.152;2022-09-14T15:20:16;18.40;99.90
24802;DHT22;12898;50.520;12.152;2022-09-14T15:22:44;18.30;99.90
24802;DHT22;12898;50.520;12.152;2022-09-14T15:25:12;18.30;99.90
24802;DHT22;12898;50.520;12.152;2022-09-14T15:27:38;18.10;99.90
24802;DHT22;12898;50.520;12.152;2022-09-14T15:30:06;18.00;99.90
24802;DHT22;12898;50.520;12.152;2022-09-14T15:32:33;18.00;99.90
24802;DHT22;12898;50.520;12.152;2022-09-14T15:34:59;18.00;99.90
24802;DHT22;12898;50.520;12.152;2022-09-14T15:37:24;17.90;99.90
24802;DHT22;12898;50.520;12.152;2022-09-14T15:39:50;17.90;99.90
24802;DHT22;12898;50.520;12.152;2022-09-14T15:42:16;17.90;99.90
24802;DHT22;12898;50.520;12.152;2022-09-14T15:44:42;17.80;99.90
24802;DHT22;12898;50.520;12.152;2022-09-14T15:47:09;17.80;99.90
24802;DHT22;12898;50.520;12.152;2022-09-14T15:49:36;17.70;99.90
24802;DHT22;12898;50.520;12.152;2022-09-14T15:52:02;17.70;99.90
24802;DHT22;12898;50.520;12.152;2022-09-14T15:54:32;17.70;99.90
24802;DHT22;12898;50.520;12.152;2022-09-14T15:56:59;17.70;99.90
24802;DHT22;12898;50.520;12.152;2022-09-14T15:59:26;17.70;99.90
24802;DHT22;12898;50.520;12.152;2022-09-14T16:01:53;17.60;99.90
24802;DHT22;12898;50.520;12.152;2022-09-14T16:04:19;17.60;99.90
24802;DHT22;12898;50.520;12.152;2022-09-14T16:06:45;17.60;99.90
24802;DHT22;12898;50.520;12.152;2022-09-14T16:09:13;17.60;99.90
24802;DHT22;12898;50.520;12.152;2022-09-14T16:11:40;17.60;99.90
24802;DHT22;12898;50.520;12.152;2022-09-14T16:14:07;17.60;99.90
24802;DHT22;12898;50.520;12.152;2022-09-14T16:16:34;17.50;99.90
24802;DHT22;12898;50.520;12.152;2022-09-14T16:19:11;17.40;99.90
24802;DHT22;12898;50.520;12.152;2022-09-14T16:21:39;17.40;99.90
24802;DHT22;12898;50.520;12.152;2022-09-14T16:24:09;17.40;99.90
24802;DHT22;12898;50.520;12.152;2022-09-14T16:26:39;17.40;99.90
24802;DHT22;12898;50.520;12.152;2022-09-14T16:29:06;17.40;99.90
24802;DHT22;12898;50.520;12.152;2022-09-14T16:31:35;17.40;99.90
24802;DHT22;12898;50.520;12.152;2022-09-14T16:34:05;17.40;99.90
24802;DHT22;12898;50.520;12.152;2022-09-14T16:36:34;17.40;99.90
24802;DHT22;12898;50.520;12.152;2022-09-14T16:39:03;17.30;99.90
24802;DHT22;12898;50.520;12.152;2022-09-14T16:41:37;17.40;99.90
24802;DHT22;12898;50.520;12.152;2022-09-14T16:44:05;17.30;99.90
24802;DHT22;12898;50.520;12.152;2022-09-14T16:46:32;17.40;99.90
24802;DHT22;12898;50.520;12.152;2022-09-14T16:48:58;17.40;99.90
24802;DHT22;12898;50.520;12.152;2022-09-14T16:51:26;17.30;99.90
24802;DHT22;12898;50.520;12.152;2022-09-14T16:53:53;17.30;99.90
24802;DHT22;12898;50.520;12.152;2022-09-14T16:56:21;17.30;99.90
24802;DHT22;12898;50.520;12.152;2022-09-14T16:58:50;17.30;99.90
24802;DHT22;12898;50.520;12.152;2022-09-14T17:03:47;17.30;99.90
24802;DHT22;12898;50.520;12.152;2022-09-14T17:06:16;17.30;99.90
24802;DHT22;12898;50.520;12.152;2022-09-14T17:08:46;17.30;99.90
24802;DHT22;12898;50.520;12.152;2022-09-14T17:11:13;17.30;99.90
24802;DHT22;12898;50.520;12.152;2022-09-14T17:13:42;17.30;99.90
24802;DHT22;12898;50.520;12.152;2022-09-14T17:16:17;17.30;99.90
24802;DHT22;12898;50.520;12.152;2022-09-14T17:18:46;17.20;99.90
24802;DHT22;12898;50.520;12.152;2022-09-14T17:21:20;17.20;99.90
24802;DHT22;12898;50.520;12.152;2022-09-14T17:23:48;17.20;99.90
24802;DHT22;12898;50.520;12.152;2022-09-14T17:26:15;17.20;99.90
24802;DHT22;12898;50.520;12.152;2022-09-14T17:28:45;17.20;99.90
24802;DHT22;12898;50.520;12.152;2022-09-14T17:31:14;17.20;99.90
24802;DHT22;12898;50.520;12.152;2022-09-14T17:33:44;17.20;99.90
24802;DHT22;12898;50.520;12.152;2022-09-14T17:36:11;17.20;99.90
24802;DHT22;12898;50.520;12.152;2022-09-14T17:38:40;17.20;99.90
24802;DHT22;12898;50.520;12.152;2022-09-14T17:41:18;17.20;99.90
24802;DHT22;12898;50.520;12.152;2022-09-14T17:43:50;17.20;99.90
24802;DHT22;12898;50.520;12.152;2022-09-14T17:46:17;17.10;99.90
24802;DHT22;12898;50.520;12.152;2022-09-14T17:48:43;17.10;99.90
24802;DHT22;12898;50.520;12.152;2022-09-14T17:51:14;17.10;99.90
24802;DHT22;12898;50.520;12.152;2022-09-14T17:53:46;17.10;99.90
24802;DHT22;12898;50.520;12.152;2022-09-14T17:56:16;17.10;99.90
24802;DHT22;12898;50.520;12.152;2022-09-14T17:58:43;17.10;99.90
24802;DHT22;12898;50.520;12.152;2022-09-14T18:01:16;17.10;99.90
24802;DHT22;12898;50.520;12.152;2022-09-14T18:03:49;17.10;99.90